Time;durP1;ratioP1;P1;durP2;ratioP2;P2;SDS_P1;SDS_P2;PMS_P1;PMS_P2;Temp;Humidity;BMP_temperature;BMP_pressure;BME280_temperature;BME280_humidity;BME280_pressure;Samples;Min_cycle;Max_cycle;Signal;HPM_P1;HPM_P2
2021/12/17 00:04:37;;;;;;;10.88;7.10;;;;;;;;;;5065897;28;20086;-56
2021/12/17 00:07:08;;;;;;;12.13;7.30;;;;;;;;;;5066969;28;20020;-56
2021/12/17 00:09:35;;;;;;;10.40;6.85;;;;;;;;;;5066763;28;20016;-55
2021/12/17 00:12:01;;;;;;;9.27;6.80;;;;;;;;;;5065071;28;20094;-56
2021/12/17 00:14:29;;;;;;;9.85;6.75;;;;;;;;;;5065596;28;20028;-55
2021/12/17 00:17:01;;;;;;;9.07;6.03;;;;;;;;;;5066342;28;20464;-56
2021/12/17 00:44:17;;;;;;;11.07;6.65;;;;;;;;;;5066423;28;20051;-56
2021/12/17 00:49:36;;;;;;;9.63;6.10;;;;;;;;;;5046100;28;20041;-56
2021/12/17 00:52:03;;;;;;;9.20;6.18;;;;;;;;;;5066837;28;20017;-56
2021/12/17 00:54:34;;;;;;;10.32;6.85;;;;;;;;;;5065706;28;20549;-54
2021/12/17 00:57:03;;;;;;;9.45;6.32;;;;;;;;;;5064575;28;20537;-56
2021/12/17 00:59:29;;;;;;;9.20;5.95;;;;;;;;;;5065536;28;20052;-54
2021/12/17 01:01:57;;;;;;;8.02;5.40;;;;;;;;;;5065870;28;20024;-56
2021/12/17 01:04:23;;;;;;;7.57;5.55;;;;;;;;;;5064055;28;20024;-55
2021/12/17 01:06:50;;;;;;;10.23;6.80;;;;;;;;;;5064578;28;20033;-56
2021/12/17 01:09:17;;;;;;;10.73;6.50;;;;;;;;;;5065898;28;20096;-55
2021/12/17 01:11:44;;;;;;;9.88;6.30;;;;;;;;;;5065609;28;20226;-55
2021/12/17 01:14:10;;;;;;;8.00;5.93;;;;;;;;;;5047119;28;20450;-54
2021/12/17 01:16:36;;;;;;;8.25;5.65;;;;;;;;;;5064579;28;20036;-56
2021/12/17 01:19:14;;;;;;;8.00;5.68;;;;;;;;;;5065402;28;20043;-55
2021/12/17 01:35:22;;;;;;;;;;;;;;;;;;5068056;28;20074;-54
2021/12/17 01:43:02;;;;;;;;;;;;;;;;;;5070178;28;20166;-53
2021/12/17 01:45:32;;;;;;;11.70;7.97;;;;;;;;;;5066577;28;20015;-54
2021/12/17 01:48:01;;;;;;;12.18;8.10;;;;;;;;;;5068895;28;20021;-55
2021/12/17 02:01:27;;;;;;;9.02;6.05;;;;;;;;;;5068896;28;20123;-56
2021/12/17 02:03:53;;;;;;;9.52;6.35;;;;;;;;;;5068390;28;20078;-55
2021/12/17 02:06:21;;;;;;;10.30;6.50;;;;;;;;;;5066979;28;20040;-56
2021/12/17 02:08:49;;;;;;;9.00;5.97;;;;;;;;;;5068190;28;20527;-55
2021/12/17 02:19:46;;;;;;;7.60;5.15;;;;;;;;;;5067992;28;20118;-55
2021/12/17 02:32:53;;;;;;;7.53;5.57;;;;;;;;;;5068107;28;20392;-55
2021/12/17 02:37:47;;;;;;;9.10;6.35;;;;;;;;;;5067544;28;20118;-55
2021/12/17 02:45:31;;;;;;;10.18;6.55;;;;;;;;;;5068086;28;20033;-55
2021/12/17 02:45:36;;;;;;;9.85;6.55;;;;;;;;;;5065911;28;20028;-55
2021/12/17 02:48:09;;;;;;;9.57;6.60;;;;;;;;;;5068567;28;20089;-56
2021/12/17 02:50:36;;;;;;;9.68;6.60;;;;;;;;;;5068060;28;20523;-56
2021/12/17 02:53:07;;;;;;;10.40;6.70;;;;;;;;;;5068501;28;20055;-57
2021/12/17 02:55:34;;;;;;;9.15;6.20;;;;;;;;;;5067566;28;20400;-56
2021/12/17 02:58:00;;;;;;;8.93;5.97;;;;;;;;;;5061618;28;20051;-56
2021/12/17 03:00:26;;;;;;;7.18;5.47;;;;;;;;;;5067329;28;20032;-56
2021/12/17 03:02:52;;;;;;;9.38;6.10;;;;;;;;;;5067678;28;20033;-56
2021/12/17 03:05:18;;;;;;;9.35;6.55;;;;;;;;;;5067302;28;20042;-56
2021/12/17 03:07:47;;;;;;;9.02;6.18;;;;;;;;;;5066534;28;20032;-56
2021/12/17 03:10:14;;;;;;;9.02;6.47;;;;;;;;;;5066483;28;20565;-56
2021/12/17 03:12:52;;;;;;;8.13;5.68;;;;;;;;;;5066153;28;20021;-56
2021/12/17 03:15:32;;;;;;;10.02;6.57;;;;;;;;;;5065334;28;20040;-55
2021/12/17 03:23:41;;;;;;;9.73;6.85;;;;;;;;;;5065470;28;20109;-55
2021/12/17 03:26:10;;;;;;;10.82;7.32;;;;;;;;;;5065612;28;20407;-56
2021/12/17 03:28:37;;;;;;;12.60;8.20;;;;;;;;;;5065593;28;20029;-56
2021/12/17 03:31:04;;;;;;;13.40;8.18;;;;;;;;;;5066246;28;20036;-55
2021/12/17 03:33:31;;;;;;;11.32;8.27;;;;;;;;;;5063501;28;20021;-55
2021/12/17 03:35:58;;;;;;;12.80;8.25;;;;;;;;;;5065678;28;20032;-55
2021/12/17 03:38:24;;;;;;;12.23;8.35;;;;;;;;;;5064903;28;20041;-56
2021/12/17 03:41:09;;;;;;;12.00;8.10;;;;;;;;;;5065334;28;20051;-56
2021/12/17 03:43:36;;;;;;;12.05;8.45;;;;;;;;;;5065731;28;20032;-55
2021/12/17 03:46:02;;;;;;;14.10;9.20;;;;;;;;;;5065950;28;20423;-55
2021/12/17 03:48:30;;;;;;;13.70;8.98;;;;;;;;;;5063470;28;20035;-56
2021/12/17 03:50:56;;;;;;;12.27;8.32;;;;;;;;;;5065263;28;20108;-56
2021/12/17 03:53:22;;;;;;;11.93;8.40;;;;;;;;;;5065264;28;20044;-55
2021/12/17 03:55:49;;;;;;;13.63;8.90;;;;;;;;;;5064984;28;20025;-55
2021/12/17 03:58:19;;;;;;;15.90;9.75;;;;;;;;;;5064854;28;20057;-55
2021/12/17 04:00:46;;;;;;;14.57;9.57;;;;;;;;;;5065127;28;20085;-56
2021/12/17 04:03:13;;;;;;;15.38;9.48;;;;;;;;;;5062360;28;20047;-55
2021/12/17 04:05:39;;;;;;;14.18;9.45;;;;;;;;;;5064266;28;20043;-54
2021/12/17 04:08:05;;;;;;;17.10;11.10;;;;;;;;;;5064006;28;20398;-55
2021/12/17 04:10:40;;;;;;;16.40;10.00;;;;;;;;;;5064911;28;20052;-55
2021/12/17 04:15:43;;;;;;;16.25;9.48;;;;;;;;;;5063362;28;20043;-55
2021/12/17 04:18:10;;;;;;;14.50;9.65;;;;;;;;;;5062627;28;20506;-55
2021/12/17 04:20:36;;;;;;;13.15;8.88;;;;;;;;;;5064292;28;20029;-56
2021/12/17 04:23:03;;;;;;;13.88;9.50;;;;;;;;;;5062817;28;20017;-56
2021/12/17 04:25:30;;;;;;;13.75;9.10;;;;;;;;;;5064539;28;20033;-56
2021/12/17 04:27:57;;;;;;;15.05;10.55;;;;;;;;;;5064341;28;20022;-56
2021/12/17 04:30:24;;;;;;;13.55;9.20;;;;;;;;;;5059124;28;20699;-56
2021/12/17 04:32:52;;;;;;;13.35;9.40;;;;;;;;;;5062357;28;20028;-55
2021/12/17 04:35:20;;;;;;;15.23;9.88;;;;;;;;;;5064194;28;20102;-55
2021/12/17 04:37:46;;;;;;;14.02;9.43;;;;;;;;;;5064300;28;20280;-55
2021/12/17 04:40:12;;;;;;;14.38;8.85;;;;;;;;;;5064304;28;20038;-55
2021/12/17 04:45:20;;;;;;;11.75;8.02;;;;;;;;;;5064327;28;20214;-54
2021/12/17 04:58:45;;;;;;;10.90;7.47;;;;;;;;;;5063578;28;19966;-54
2021/12/17 05:01:14;;;;;;;11.30;7.28;;;;;;;;;;5064239;28;20024;-56
2021/12/17 05:03:40;;;;;;;11.13;7.35;;;;;;;;;;5064303;28;20035;-55
2021/12/17 05:06:06;;;;;;;10.88;7.35;;;;;;;;;;5063884;28;20049;-56
2021/12/17 05:08:33;;;;;;;12.50;8.25;;;;;;;;;;5067412;28;20059;-55
2021/12/17 05:11:18;;;;;;;11.15;7.18;;;;;;;;;;5069006;28;20742;-55
2021/12/17 05:21:42;;;;;;;11.48;7.47;;;;;;;;;;5067960;28;20033;-55
2021/12/17 05:24:08;;;;;;;11.25;7.68;;;;;;;;;;5066972;28;20020;-56
2021/12/17 05:26:35;;;;;;;13.20;7.82;;;;;;;;;;5067852;28;20035;-54
2021/12/17 05:29:01;;;;;;;10.60;7.43;;;;;;;;;;5068098;28;20056;-55
2021/12/17 05:31:27;;;;;;;12.40;8.57;;;;;;;;;;5066812;28;20049;-54
2021/12/17 05:33:54;;;;;;;11.50;7.63;;;;;;;;;;5067539;28;20566;-56
2021/12/17 05:36:23;;;;;;;11.13;7.97;;;;;;;;;;5067669;28;20151;-55
2021/12/17 05:38:49;;;;;;;11.10;8.00;;;;;;;;;;5067943;28;20047;-55
2021/12/17 05:41:16;;;;;;;11.00;7.30;;;;;;;;;;5067604;28;20036;-55
2021/12/17 05:43:44;;;;;;;10.85;7.43;;;;;;;;;;5067655;28;20025;-55
2021/12/17 05:46:12;;;;;;;11.88;7.47;;;;;;;;;;5066479;28;20517;-55
2021/12/17 05:48:40;;;;;;;9.77;6.72;;;;;;;;;;5047143;28;20021;-55
2021/12/17 05:51:07;;;;;;;10.80;7.55;;;;;;;;;;5047378;28;20035;-55
2021/12/17 05:53:33;;;;;;;11.27;7.80;;;;;;;;;;5048129;28;20017;-56
2021/12/17 05:55:59;;;;;;;12.32;7.05;;;;;;;;;;5048032;28;20110;-56
2021/12/17 05:58:26;;;;;;;11.55;8.02;;;;;;;;;;5047236;28;20407;-56
2021/12/17 06:00:54;;;;;;;16.33;9.55;;;;;;;;;;5055433;28;20063;-55
2021/12/17 06:03:20;;;;;;;18.35;9.88;;;;;;;;;;5064711;28;20054;-57
2021/12/17 06:05:46;;;;;;;20.10;11.90;;;;;;;;;;5062408;28;20040;-57
2021/12/17 06:08:13;;;;;;;16.75;9.85;;;;;;;;;;5064704;28;20024;-56
2021/12/17 06:10:39;;;;;;;18.58;9.90;;;;;;;;;;5061808;28;20124;-55
2021/12/17 06:13:05;;;;;;;17.30;10.38;;;;;;;;;;5067737;28;20016;-55
2021/12/17 06:15:31;;;;;;;18.67;11.07;;;;;;;;;;5065054;28;20495;-56
2021/12/17 06:17:57;;;;;;;17.63;10.30;;;;;;;;;;5067845;28;20039;-56
2021/12/17 06:20:24;;;;;;;16.48;10.18;;;;;;;;;;5066035;28;20052;-56
2021/12/17 06:22:50;;;;;;;17.20;10.45;;;;;;;;;;5085706;28;20095;-56
2021/12/17 06:25:17;;;;;;;15.05;9.15;;;;;;;;;;5069682;28;20037;-56
2021/12/17 06:27:43;;;;;;;15.73;10.23;;;;;;;;;;5067236;28;20044;-58
2021/12/17 06:30:11;;;;;;;14.88;9.50;;;;;;;;;;5067759;28;20074;-55
2021/12/17 06:32:37;;;;;;;13.77;8.98;;;;;;;;;;5068111;28;20025;-54
2021/12/17 06:35:04;;;;;;;13.45;8.60;;;;;;;;;;5062663;28;20033;-56
2021/12/17 06:37:30;;;;;;;13.60;9.05;;;;;;;;;;5047906;28;20029;-55
2021/12/17 06:39:58;;;;;;;13.30;8.50;;;;;;;;;;5079642;28;20051;-55
2021/12/17 06:42:26;;;;;;;14.65;9.50;;;;;;;;;;5088267;28;20016;-55
2021/12/17 06:44:55;;;;;;;13.65;9.38;;;;;;;;;;5069515;28;20458;-55
2021/12/17 06:49:57;;;;;;;13.98;8.90;;;;;;;;;;5068157;28;20033;-55
2021/12/17 06:55:29;;;;;;;13.02;8.68;;;;;;;;;;5063051;28;20136;-55
2021/12/17 07:40:07;;;;;;;13.27;8.75;;;;;;;;;;5066840;28;21120;-54
2021/12/17 07:42:33;;;;;;;13.35;8.35;;;;;;;;;;5065957;28;20028;-54
2021/12/17 07:44:59;;;;;;;10.65;7.88;;;;;;;;;;5062122;28;20470;-55
2021/12/17 07:47:25;;;;;;;14.50;8.82;;;;;;;;;;5063817;28;20058;-54
2021/12/17 07:49:51;;;;;;;14.98;10.50;;;;;;;;;;5065582;28;20481;-54
2021/12/17 07:52:18;;;;;;;14.15;9.10;;;;;;;;;;5064896;28;20105;-56
2021/12/17 07:54:44;;;;;;;13.65;9.18;;;;;;;;;;5065466;28;20447;-55
2021/12/17 07:57:11;;;;;;;13.10;8.90;;;;;;;;;;5044892;28;20028;-54
2021/12/17 07:59:37;;;;;;;17.05;9.93;;;;;;;;;;5065675;28;20024;-54
2021/12/17 08:02:03;;;;;;;14.55;9.23;;;;;;;;;;5063876;28;20458;-54
2021/12/17 08:04:29;;;;;;;15.88;9.43;;;;;;;;;;5065648;28;20020;-55
2021/12/17 08:06:55;;;;;;;14.90;9.07;;;;;;;;;;5065076;28;20029;-54
2021/12/17 08:09:24;;;;;;;13.52;8.77;;;;;;;;;;5064190;28;20577;-55
2021/12/17 08:11:55;;;;;;;12.77;8.95;;;;;;;;;;5064870;28;20043;-54
2021/12/17 08:14:22;;;;;;;14.77;9.10;;;;;;;;;;5064672;28;20056;-53
2021/12/17 08:16:57;;;;;;;18.80;12.07;;;;;;;;;;5064643;28;20605;-52
2021/12/17 08:30:22;;;;;;;17.38;10.80;;;;;;;;;;5063891;28;20040;-51
2021/12/17 08:32:41;;;;;;;14.00;9.48;;;;;;;;;;5063386;28;20689;-53
2021/12/17 08:35:08;;;;;;;15.68;9.82;;;;;;;;;;5064397;28;20039;-52
2021/12/17 08:37:34;;;;;;;15.02;9.63;;;;;;;;;;5064378;28;20111;-53
2021/12/17 08:40:01;;;;;;;13.88;9.43;;;;;;;;;;5064430;28;20414;-53
2021/12/17 08:42:28;;;;;;;14.80;9.70;;;;;;;;;;5064403;28;20224;-53
2021/12/17 08:44:55;;;;;;;14.77;9.60;;;;;;;;;;5064177;28;20031;-53
2021/12/17 08:47:22;;;;;;;14.05;9.10;;;;;;;;;;5064201;28;20032;-52
2021/12/17 08:49:50;;;;;;;15.95;9.88;;;;;;;;;;5064154;28;20028;-53
2021/12/17 08:52:17;;;;;;;15.50;10.18;;;;;;;;;;5064286;28;20440;-53
2021/12/17 08:54:43;;;;;;;14.90;9.48;;;;;;;;;;5064112;28;20071;-53
2021/12/17 08:57:09;;;;;;;14.43;9.50;;;;;;;;;;5063782;28;20028;-51
2021/12/17 08:59:36;;;;;;;15.98;9.80;;;;;;;;;;5064005;28;20027;-52
2021/12/17 09:02:02;;;;;;;19.60;11.27;;;;;;;;;;5063714;28;20503;-53
2021/12/17 09:04:29;;;;;;;17.65;10.45;;;;;;;;;;5064999;28;20482;-51
2021/12/17 09:06:55;;;;;;;17.85;10.88;;;;;;;;;;5064844;28;20085;-51
2021/12/17 09:09:22;;;;;;;16.38;10.82;;;;;;;;;;5063789;28;20031;-54
2021/12/17 09:11:48;;;;;;;15.48;10.60;;;;;;;;;;5064262;28;20059;-53
2021/12/17 09:14:19;;;;;;;15.30;10.30;;;;;;;;;;5064020;28;20032;-54
2021/12/17 09:16:45;;;;;;;15.70;10.15;;;;;;;;;;5064239;28;20032;-53
2021/12/17 09:19:12;;;;;;;15.15;9.77;;;;;;;;;;5063736;28;20058;-52
2021/12/17 09:21:39;;;;;;;15.35;10.00;;;;;;;;;;5046144;28;20032;-53
2021/12/17 09:24:06;;;;;;;14.23;9.60;;;;;;;;;;5063797;28;20024;-51
2021/12/17 09:26:33;;;;;;;14.88;9.40;;;;;;;;;;5045947;28;20066;-53
2021/12/17 09:29:00;;;;;;;14.75;8.80;;;;;;;;;;5064446;28;20025;-53
2021/12/17 09:31:26;;;;;;;14.77;9.80;;;;;;;;;;5064232;28;20024;-52
2021/12/17 09:33:52;;;;;;;14.07;9.35;;;;;;;;;;5063818;28;20020;-53
2021/12/17 09:36:19;;;;;;;13.82;9.75;;;;;;;;;;5063690;28;20435;-53
2021/12/17 09:38:49;;;;;;;14.00;9.27;;;;;;;;;;5063617;28;20068;-52
2021/12/17 09:41:20;;;;;;;13.20;8.93;;;;;;;;;;5063465;28;20035;-53
2021/12/17 09:43:47;;;;;;;14.15;9.27;;;;;;;;;;5063874;28;20514;-52
2021/12/17 09:46:14;;;;;;;13.80;9.30;;;;;;;;;;5063386;28;20037;-52
2021/12/17 09:48:40;;;;;;;11.60;8.60;;;;;;;;;;5063871;28;20035;-53
2021/12/17 09:51:08;;;;;;;11.18;8.25;;;;;;;;;;5063518;28;20028;-53
2021/12/17 09:53:36;;;;;;;12.82;8.70;;;;;;;;;;5064753;28;20059;-51
2021/12/17 09:56:03;;;;;;;11.05;7.95;;;;;;;;;;5067162;28;20039;-52
2021/12/17 09:58:31;;;;;;;12.55;8.57;;;;;;;;;;5067744;28;20029;-53
2021/12/17 10:00:58;;;;;;;12.32;8.80;;;;;;;;;;5067792;28;20024;-53
2021/12/17 10:03:24;;;;;;;13.20;8.82;;;;;;;;;;5067091;28;20055;-53
2021/12/17 10:05:50;;;;;;;12.38;8.23;;;;;;;;;;5067233;28;20597;-54
2021/12/17 10:08:19;;;;;;;11.77;8.25;;;;;;;;;;5066764;28;20035;-54
2021/12/17 10:10:50;;;;;;;11.30;7.82;;;;;;;;;;5067163;28;20029;-53
2021/12/17 10:13:19;;;;;;;11.02;7.90;;;;;;;;;;5067037;28;20036;-52
2021/12/17 10:15:46;;;;;;;11.95;8.38;;;;;;;;;;5067016;28;20032;-53
2021/12/17 10:18:13;;;;;;;11.98;8.35;;;;;;;;;;5066809;28;20029;-53
2021/12/17 10:20:48;;;;;;;12.63;8.38;;;;;;;;;;5067143;28;20419;-54
2021/12/17 10:23:14;;;;;;;11.43;7.95;;;;;;;;;;5066975;28;20147;-53
2021/12/17 10:25:45;;;;;;;11.02;7.75;;;;;;;;;;5066811;28;20040;-53
2021/12/17 10:28:11;;;;;;;13.23;8.38;;;;;;;;;;5066625;28;20024;-52
2021/12/17 10:30:39;;;;;;;12.65;8.27;;;;;;;;;;5066312;28;20030;-49
2021/12/17 10:33:06;;;;;;;13.05;7.97;;;;;;;;;;5066649;28;20020;-51
2021/12/17 10:35:34;;;;;;;13.48;9.23;;;;;;;;;;5066799;28;20032;-52
2021/12/17 10:38:04;;;;;;;12.88;8.93;;;;;;;;;;5066473;28;20035;-53
2021/12/17 10:40:32;;;;;;;13.75;9.05;;;;;;;;;;5067331;28;20423;-53
2021/12/17 10:43:07;;;;;;;12.48;8.45;;;;;;;;;;5067093;28;20108;-51
2021/12/17 10:45:35;;;;;;;11.85;8.43;;;;;;;;;;5066643;28;20221;-52
2021/12/17 10:48:32;;;;;;;13.40;8.52;;;;;;;;;;5066651;28;20020;-54
2021/12/17 10:52:15;;;;;;;13.07;8.73;;;;;;;;;;5067224;28;20032;-52
2021/12/17 10:54:07;;;;;;;14.05;8.57;;;;;;;;;;5056660;28;20029;-53
2021/12/17 10:56:35;;;;;;;12.60;8.27;;;;;;;;;;5066401;28;20570;-49
2021/12/17 10:59:03;;;;;;;12.02;8.25;;;;;;;;;;5065630;28;20105;-54
2021/12/17 11:01:32;;;;;;;10.32;7.22;;;;;;;;;;5067061;28;20514;-52
2021/12/17 11:04:09;;;;;;;11.30;7.40;;;;;;;;;;5067002;28;20046;-52
2021/12/17 11:07:04;;;;;;;11.00;7.85;;;;;;;;;;5065746;28;20029;-53
2021/12/17 11:09:34;;;;;;;11.38;7.28;;;;;;;;;;5049455;28;20032;-53
2021/12/17 11:12:17;;;;;;;9.50;6.50;;;;;;;;;;5065832;28;20031;-52
2021/12/17 11:14:44;;;;;;;8.43;6.22;;;;;;;;;;5065930;28;20029;-53
2021/12/17 11:17:10;;;;;;;8.80;5.90;;;;;;;;;;5065226;28;20032;-52
2021/12/17 11:19:36;;;;;;;7.00;5.20;;;;;;;;;;5064927;28;20115;-54
2021/12/17 11:22:03;;;;;;;7.70;5.13;;;;;;;;;;5065975;28;20082;-53
2021/12/17 11:24:29;;;;;;;7.68;5.25;;;;;;;;;;5068084;28;20045;-52
2021/12/17 11:26:57;;;;;;;6.47;4.78;;;;;;;;;;5087943;28;20527;-52
2021/12/17 11:29:23;;;;;;;7.53;4.95;;;;;;;;;;5078918;28;20810;-54
2021/12/17 11:31:49;;;;;;;6.28;5.00;;;;;;;;;;5064483;28;20064;-53
2021/12/17 11:34:18;;;;;;;6.28;4.53;;;;;;;;;;5064296;28;20032;-53
2021/12/17 11:36:44;;;;;;;6.00;4.60;;;;;;;;;;5067982;28;20139;-53
2021/12/17 11:39:17;;;;;;;7.05;4.80;;;;;;;;;;5059258;28;20047;-53
2021/12/17 11:41:44;;;;;;;6.97;5.05;;;;;;;;;;5070830;28;20027;-53
2021/12/17 11:44:13;;;;;;;7.22;5.50;;;;;;;;;;5078755;28;20032;-54
2021/12/17 11:46:40;;;;;;;7.95;6.07;;;;;;;;;;5064013;28;20124;-54
2021/12/17 11:49:12;;;;;;;10.73;6.70;;;;;;;;;;5063217;28;20031;-53
2021/12/17 11:51:40;;;;;;;13.52;7.75;;;;;;;;;;5062481;28;20032;-54
2021/12/17 11:54:16;;;;;;;11.93;8.23;;;;;;;;;;5079142;28;20028;-54
2021/12/17 11:56:52;;;;;;;11.07;7.32;;;;;;;;;;5064770;28;20056;-54
2021/12/17 11:59:23;;;;;;;10.27;6.95;;;;;;;;;;5065008;28;20381;-51
2021/12/17 12:01:55;;;;;;;9.57;6.35;;;;;;;;;;5055655;28;20032;-53
2021/12/17 12:04:22;;;;;;;9.65;6.88;;;;;;;;;;5066449;28;20759;-48
2021/12/17 12:07:01;;;;;;;8.48;6.10;;;;;;;;;;5066562;28;20069;-54
2021/12/17 12:09:45;;;;;;;7.53;5.97;;;;;;;;;;5065838;28;20036;-51
2021/12/17 12:12:12;;;;;;;9.57;6.85;;;;;;;;;;5066391;28;20052;-52
2021/12/17 12:14:38;;;;;;;7.95;6.20;;;;;;;;;;5065101;28;20083;-52
2021/12/17 12:17:04;;;;;;;8.30;6.35;;;;;;;;;;5063821;28;20082;-53
2021/12/17 12:19:49;;;;;;;8.80;6.10;;;;;;;;;;5065544;28;20450;-55
2021/12/17 12:22:15;;;;;;;8.20;6.25;;;;;;;;;;5063554;28;20021;-53
2021/12/17 12:24:41;;;;;;;9.45;6.18;;;;;;;;;;5063615;28;20580;-51
2021/12/17 12:27:26;;;;;;;8.35;6.10;;;;;;;;;;5064280;28;20518;-52
2021/12/17 12:29:57;;;;;;;8.93;6.35;;;;;;;;;;5064141;28;20084;-53
2021/12/17 12:32:24;;;;;;;8.07;6.07;;;;;;;;;;5065408;28;20388;-52
2021/12/17 12:34:50;;;;;;;8.57;6.30;;;;;;;;;;5065778;28;20032;-52
2021/12/17 12:37:18;;;;;;;6.75;5.63;;;;;;;;;;5065652;28;20025;-53
2021/12/17 12:39:50;;;;;;;7.20;5.55;;;;;;;;;;5065561;28;20040;-52
2021/12/17 12:42:17;;;;;;;10.15;7.15;;;;;;;;;;5062151;28;20028;-51
2021/12/17 12:44:43;;;;;;;10.25;6.97;;;;;;;;;;5058782;28;20016;-49
2021/12/17 12:47:11;;;;;;;9.98;6.90;;;;;;;;;;5066085;28;20091;-51
2021/12/17 12:49:52;;;;;;;8.73;6.45;;;;;;;;;;5066188;28;20027;-51
2021/12/17 12:52:21;;;;;;;9.07;6.47;;;;;;;;;;5065106;28;20021;-49
2021/12/17 12:54:51;;;;;;;9.43;7.03;;;;;;;;;;5065280;28;20451;-52
2021/12/17 12:57:27;;;;;;;12.63;8.35;;;;;;;;;;5065037;28;20028;-53
2021/12/17 12:59:54;;;;;;;16.55;9.20;;;;;;;;;;5063968;28;20512;-53
2021/12/17 13:02:21;;;;;;;12.55;8.30;;;;;;;;;;5062853;28;20029;-52
2021/12/17 13:04:47;;;;;;;14.05;8.10;;;;;;;;;;5065895;28;20043;-53
2021/12/17 13:07:16;;;;;;;12.23;7.25;;;;;;;;;;5064943;28;20090;-53
2021/12/17 13:09:43;;;;;;;11.38;6.80;;;;;;;;;;5064612;28;20021;-53
2021/12/17 13:12:10;;;;;;;11.52;7.40;;;;;;;;;;5062562;28;20036;-53
2021/12/17 13:14:45;;;;;;;10.23;7.35;;;;;;;;;;5065678;28;20112;-51
2021/12/17 13:21:04;;;;;;;12.82;8.40;;;;;;;;;;5065569;28;20035;-54
2021/12/17 13:22:57;;;;;;;11.18;7.60;;;;;;;;;;5051059;28;20048;-55
2021/12/17 13:25:27;;;;;;;12.60;7.78;;;;;;;;;;5065668;28;20052;-54
2021/12/17 13:27:55;;;;;;;10.43;7.35;;;;;;;;;;5064781;28;20483;-53
2021/12/17 13:30:28;;;;;;;14.38;8.60;;;;;;;;;;5067654;28;20511;-55
2021/12/17 13:32:54;;;;;;;15.52;9.32;;;;;;;;;;5068039;28;20028;-53
2021/12/17 13:35:26;;;;;;;15.75;9.82;;;;;;;;;;5067705;28;20121;-55
2021/12/17 13:37:59;;;;;;;14.55;9.27;;;;;;;;;;5067828;28;20069;-53
2021/12/17 13:40:27;;;;;;;14.65;9.07;;;;;;;;;;5068009;28;20040;-54
2021/12/17 13:42:55;;;;;;;15.05;9.40;;;;;;;;;;5067713;28;20032;-54
2021/12/17 13:45:22;;;;;;;14.65;10.18;;;;;;;;;;5067662;28;20033;-55
2021/12/17 13:47:50;;;;;;;16.10;10.30;;;;;;;;;;5067704;28;20027;-54
2021/12/17 13:50:22;;;;;;;17.30;10.88;;;;;;;;;;5067511;28;20021;-54
2021/12/17 13:52:48;;;;;;;17.00;10.45;;;;;;;;;;5067627;28;20066;-55
2021/12/17 13:55:15;;;;;;;14.38;9.25;;;;;;;;;;5067404;28;20035;-55
2021/12/17 13:57:43;;;;;;;14.07;9.55;;;;;;;;;;5064900;28;20364;-55
2021/12/17 14:00:18;;;;;;;12.70;8.13;;;;;;;;;;5067649;28;20033;-54
2021/12/17 14:02:45;;;;;;;11.82;8.05;;;;;;;;;;5065154;28;20107;-55
2021/12/17 14:05:15;;;;;;;13.38;9.32;;;;;;;;;;5066864;28;20040;-54
2021/12/17 14:07:41;;;;;;;12.73;8.93;;;;;;;;;;5067206;28;20393;-55
2021/12/17 14:10:11;;;;;;;13.23;9.25;;;;;;;;;;5067103;28;20056;-55
2021/12/17 14:12:41;;;;;;;10.90;7.97;;;;;;;;;;5066919;28;20032;-55
2021/12/17 14:15:11;;;;;;;10.90;7.95;;;;;;;;;;5066762;28;20027;-55
2021/12/17 14:17:46;;;;;;;12.50;8.68;;;;;;;;;;5056581;28;20042;-54
2021/12/17 14:20:22;;;;;;;13.80;9.13;;;;;;;;;;5066631;28;20271;-54
2021/12/17 14:22:50;;;;;;;12.82;9.15;;;;;;;;;;5063723;28;20027;-53
2021/12/17 14:25:25;;;;;;;12.20;8.73;;;;;;;;;;5063406;28;20044;-51
2021/12/17 14:27:51;;;;;;;10.70;7.88;;;;;;;;;;5067596;28;20063;-53
2021/12/17 14:30:22;;;;;;;11.38;7.70;;;;;;;;;;5066651;28;20021;-53
2021/12/17 14:32:50;;;;;;;12.73;8.13;;;;;;;;;;5066149;28;20559;-54
2021/12/17 14:35:16;;;;;;;10.75;7.90;;;;;;;;;;5066929;28;20112;-54
2021/12/17 14:37:54;;;;;;;11.02;8.43;;;;;;;;;;5069960;28;20633;-53
2021/12/17 14:40:24;;;;;;;11.25;7.80;;;;;;;;;;5071608;28;20051;-54
2021/12/17 14:42:54;;;;;;;11.32;8.02;;;;;;;;;;5067274;28;20158;-54
2021/12/17 14:45:23;;;;;;;10.27;7.85;;;;;;;;;;5067302;28;20114;-54
2021/12/17 14:47:57;;;;;;;11.35;7.88;;;;;;;;;;5067614;28;20020;-53
2021/12/17 15:01:34;;;;;;;8.60;6.43;;;;;;;;;;5066602;28;20032;-54
2021/12/17 15:04:00;;;;;;;9.00;7.03;;;;;;;;;;5067113;28;20024;-55
2021/12/17 15:06:26;;;;;;;11.13;7.93;;;;;;;;;;5064737;28;20672;-54
2021/12/17 15:08:52;;;;;;;9.68;7.18;;;;;;;;;;5068316;28;20067;-54
2021/12/17 15:11:35;;;;;;;11.18;7.30;;;;;;;;;;5067087;28;20460;-54
2021/12/17 15:14:01;;;;;;;8.82;6.72;;;;;;;;;;5067699;28;20927;-54
2021/12/17 15:16:27;;;;;;;11.02;8.07;;;;;;;;;;5066615;28;20060;-54
2021/12/17 15:18:53;;;;;;;11.40;8.88;;;;;;;;;;5063504;28;20061;-54
2021/12/17 15:21:19;;;;;;;12.93;9.05;;;;;;;;;;5068759;28;20442;-55
2021/12/17 15:23:45;;;;;;;15.30;10.38;;;;;;;;;;5067659;28;20036;-55
2021/12/17 15:26:11;;;;;;;16.52;10.80;;;;;;;;;;5065221;28;20040;-54
2021/12/17 15:28:37;;;;;;;14.20;9.65;;;;;;;;;;5063505;28;20452;-54
2021/12/17 15:31:06;;;;;;;12.50;8.88;;;;;;;;;;5061989;28;20032;-54
2021/12/17 15:33:33;;;;;;;11.27;7.97;;;;;;;;;;5066639;28;20028;-55
2021/12/17 15:35:59;;;;;;;11.68;8.18;;;;;;;;;;5067082;28;20048;-55
2021/12/17 15:38:25;;;;;;;12.05;8.60;;;;;;;;;;5058411;28;20032;-55
2021/12/17 15:40:52;;;;;;;11.82;8.60;;;;;;;;;;5050656;28;20036;-55
2021/12/17 15:43:19;;;;;;;12.10;8.80;;;;;;;;;;5065768;28;20043;-56
2021/12/17 15:45:46;;;;;;;13.00;8.63;;;;;;;;;;5044984;28;20511;-55
2021/12/17 15:48:13;;;;;;;15.30;9.95;;;;;;;;;;5062050;28;20020;-55
2021/12/17 15:50:39;;;;;;;18.20;12.65;;;;;;;;;;5065576;28;20028;-55
2021/12/17 15:53:06;;;;;;;20.65;13.85;;;;;;;;;;5065534;28;20020;-55
2021/12/17 15:55:32;;;;;;;22.42;15.18;;;;;;;;;;5070628;28;20063;-55
2021/12/17 15:57:59;;;;;;;21.77;14.57;;;;;;;;;;5066669;28;20056;-55
2021/12/17 16:00:26;;;;;;;16.65;11.98;;;;;;;;;;5061714;28;20028;-56
2021/12/17 16:02:53;;;;;;;15.57;11.18;;;;;;;;;;5060918;28;20108;-53
2021/12/17 16:05:21;;;;;;;15.18;10.75;;;;;;;;;;5070604;28;20058;-55
2021/12/17 16:07:49;;;;;;;13.95;10.45;;;;;;;;;;5066219;28;20442;-54
2021/12/17 16:18:29;;;;;;;11.35;7.95;;;;;;;;;;5062970;28;20047;-54
2021/12/17 16:23:26;;;;;;;12.27;9.02;;;;;;;;;;5062880;28;20399;-54
2021/12/17 16:25:52;;;;;;;13.13;8.43;;;;;;;;;;5063772;28;20036;-55
2021/12/17 16:28:18;;;;;;;12.10;8.70;;;;;;;;;;5064050;28;20023;-53
2021/12/17 16:30:44;;;;;;;11.73;9.05;;;;;;;;;;5062539;28;20044;-54
2021/12/17 16:33:10;;;;;;;13.80;9.90;;;;;;;;;;5062449;28;20153;-54
2021/12/17 16:35:36;;;;;;;15.52;10.57;;;;;;;;;;5063922;28;20541;-54
2021/12/17 16:38:02;;;;;;;16.30;11.23;;;;;;;;;;5044044;28;20025;-54
2021/12/17 16:40:29;;;;;;;16.17;11.07;;;;;;;;;;5044326;28;20480;-54
2021/12/17 16:42:58;;;;;;;16.70;11.52;;;;;;;;;;5045869;28;20538;-55
2021/12/17 16:45:41;;;;;;;15.07;9.57;;;;;;;;;;5045678;28;20488;-54
2021/12/17 16:48:08;;;;;;;15.52;10.02;;;;;;;;;;5063219;28;20047;-54
2021/12/17 16:50:35;;;;;;;12.13;8.43;;;;;;;;;;5061220;28;20107;-55
2021/12/17 16:53:03;;;;;;;13.65;8.85;;;;;;;;;;5045598;28;20028;-54
2021/12/17 16:55:30;;;;;;;13.85;8.70;;;;;;;;;;5062237;28;20036;-54
2021/12/17 16:57:56;;;;;;;13.13;8.27;;;;;;;;;;5045266;28;20577;-53
2021/12/17 17:00:23;;;;;;;10.88;7.85;;;;;;;;;;5062228;28;20086;-54
2021/12/17 17:02:53;;;;;;;11.75;7.93;;;;;;;;;;5076408;28;20030;-54
2021/12/17 17:05:20;;;;;;;12.35;7.88;;;;;;;;;;5087585;28;20046;-55
2021/12/17 17:07:46;;;;;;;10.68;7.00;;;;;;;;;;5066317;28;20074;-54
2021/12/17 17:10:13;;;;;;;11.20;7.55;;;;;;;;;;5067247;28;20031;-54
2021/12/17 17:12:43;;;;;;;10.13;7.07;;;;;;;;;;5049406;28;20487;-54
2021/12/17 17:15:09;;;;;;;11.98;7.97;;;;;;;;;;5066178;28;20039;-54
2021/12/17 17:17:36;;;;;;;11.73;7.90;;;;;;;;;;5065904;28;20036;-54
2021/12/17 17:20:02;;;;;;;11.35;7.57;;;;;;;;;;5067240;28;20111;-53
2021/12/17 17:22:29;;;;;;;13.25;7.97;;;;;;;;;;5067214;28;20091;-55
2021/12/17 17:24:55;;;;;;;11.40;7.80;;;;;;;;;;5066158;28;20583;-53
2021/12/17 17:27:21;;;;;;;11.95;8.35;;;;;;;;;;5066928;28;20115;-54
2021/12/17 17:29:48;;;;;;;10.77;7.40;;;;;;;;;;5049216;28;20016;-54
2021/12/17 17:32:15;;;;;;;11.15;7.80;;;;;;;;;;5065824;28;20020;-54
2021/12/17 17:34:42;;;;;;;12.82;8.27;;;;;;;;;;5049219;28;20029;-54
2021/12/17 17:37:08;;;;;;;12.00;7.60;;;;;;;;;;5065214;28;20078;-54
2021/12/17 17:39:34;;;;;;;12.85;8.80;;;;;;;;;;5066884;28;20041;-54
2021/12/17 17:42:00;;;;;;;15.68;9.50;;;;;;;;;;5065086;28;20150;-55
2021/12/17 17:44:27;;;;;;;14.05;9.57;;;;;;;;;;5048923;28;20103;-55
2021/12/17 17:46:54;;;;;;;17.08;11.38;;;;;;;;;;5066613;28;20104;-54
2021/12/17 17:49:20;;;;;;;20.88;12.07;;;;;;;;;;5065682;28;20487;-55
2021/12/17 17:51:47;;;;;;;21.98;13.80;;;;;;;;;;5046610;28;20094;-55
2021/12/17 17:54:14;;;;;;;20.52;13.00;;;;;;;;;;5064643;28;20514;-53
2021/12/17 17:56:40;;;;;;;23.00;13.63;;;;;;;;;;5065321;28;20035;-54